createdAt,value
2024-02-11T00:00:31.281Z,10.53
2024-02-11T00:02:58.015Z,10.57
2024-02-11T00:05:25.967Z,10.58
2024-02-11T00:07:52.617Z,10.59
2024-02-11T00:10:19.306Z,10.61
2024-02-11T00:12:45.955Z,10.59
2024-02-11T00:15:12.756Z,10.61
2024-02-11T00:17:39.402Z,10.59
2024-02-11T00:20:15.223Z,10.59
2024-02-11T00:22:42.185Z,10.57
2024-02-11T00:25:10.654Z,10.57
2024-02-11T00:27:44.216Z,10.51
2024-02-11T00:30:11.857Z,10.53
2024-02-11T00:32:38.818Z,10.55
2024-02-11T00:35:06.261Z,10.55
2024-02-11T00:37:33.197Z,10.56
2024-02-11T00:39:59.882Z,10.57
2024-02-11T00:42:29.222Z,10.57
2024-02-11T00:44:56.104Z,10.55
2024-02-11T00:47:23.687Z,10.55
2024-02-11T00:49:50.772Z,10.57
2024-02-11T00:52:17.536Z,10.59
2024-02-11T00:54:44.235Z,10.61
2024-02-11T00:57:11.211Z,10.60
2024-02-11T00:59:42.383Z,10.57
2024-02-11T01:02:10.463Z,10.55
2024-02-11T01:04:40.670Z,10.55
2024-02-11T01:07:07.888Z,10.55
2024-02-11T01:09:34.966Z,10.52
2024-02-11T01:12:01.551Z,10.52
2024-02-11T01:14:30.891Z,10.50
2024-02-11T01:16:57.709Z,10.48
2024-02-11T01:19:24.401Z,10.48
2024-02-11T01:21:50.958Z,10.50
2024-02-11T01:24:17.469Z,10.52
2024-02-11T01:26:44.082Z,10.53
2024-02-11T01:29:12.054Z,10.55
2024-02-11T01:31:40.737Z,10.55
2024-02-11T01:34:08.642Z,10.51
2024-02-11T01:36:35.289Z,10.41
2024-02-11T01:39:01.770Z,10.39
2024-02-11T01:41:29.016Z,10.42
2024-02-11T01:43:57.547Z,10.38
2024-02-11T01:46:24.114Z,10.39
2024-02-11T01:48:51.631Z,10.40
2024-02-11T01:51:19.066Z,10.42
2024-02-11T01:53:50.042Z,10.43
2024-02-11T01:56:23.589Z,10.44
2024-02-11T01:58:51.506Z,10.47
2024-02-11T02:01:19.844Z,10.46
2024-02-11T02:03:48.927Z,10.44
2024-02-11T02:06:18.423Z,10.45
2024-02-11T02:08:45.808Z,10.47
2024-02-11T02:11:12.748Z,10.45
2024-02-11T02:13:40.024Z,10.46
2024-02-11T02:16:08.859Z,10.44
2024-02-11T02:18:36.382Z,10.45
2024-02-11T02:21:05.755Z,10.45
2024-02-11T02:23:32.647Z,10.48
2024-02-11T02:26:04.205Z,10.46
2024-02-11T02:28:30.835Z,10.46
2024-02-11T02:30:57.367Z,10.48
2024-02-11T02:33:24.031Z,10.50
2024-02-11T02:35:52.173Z,10.52
2024-02-11T02:38:18.785Z,10.52
2024-02-11T02:40:46.271Z,10.52
2024-02-11T02:43:13.100Z,10.52
2024-02-11T02:45:40.425Z,10.51
2024-02-11T02:48:07.790Z,10.52
2024-02-11T02:50:36.036Z,10.51
2024-02-11T02:53:03.879Z,10.49
2024-02-11T02:55:30.820Z,10.46
2024-02-11T02:57:57.389Z,10.43
2024-02-11T03:00:25.136Z,10.43
2024-02-11T03:02:54.075Z,10.40
2024-02-11T03:05:23.662Z,10.43
2024-02-11T03:07:54.612Z,10.44
2024-02-11T03:10:22.360Z,10.42
2024-02-11T03:12:49.538Z,10.43
2024-02-11T03:15:17.392Z,10.46
2024-02-11T03:17:44.091Z,10.43
2024-02-11T03:20:12.614Z,10.39
2024-02-11T03:22:39.401Z,10.37
2024-02-11T03:25:06.073Z,10.35
2024-02-11T03:27:32.613Z,10.32
2024-02-11T03:29:59.188Z,10.29
2024-02-11T03:32:28.080Z,10.30
2024-02-11T03:34:54.699Z,10.31
2024-02-11T03:37:21.370Z,10.34
2024-02-11T03:39:50.366Z,10.33
2024-02-11T03:42:16.939Z,10.33
2024-02-11T03:44:43.593Z,10.35
2024-02-11T03:47:10.232Z,10.37
2024-02-11T03:49:36.842Z,10.38
2024-02-11T03:52:03.671Z,10.38
2024-02-11T03:54:30.180Z,10.40
2024-02-11T03:56:56.750Z,10.39
2024-02-11T03:59:23.982Z,10.39
2024-02-11T04:01:50.588Z,10.39
2024-02-11T04:04:19.028Z,10.39
2024-02-11T04:06:46.255Z,10.39
2024-02-11T04:09:15.063Z,10.36
2024-02-11T04:11:43.040Z,10.36
2024-02-11T04:14:10.429Z,10.36
2024-02-11T04:16:44.760Z,10.35
2024-02-11T04:19:13.232Z,10.35
2024-02-11T04:21:42.108Z,10.34
2024-02-11T04:24:09.660Z,10.33
2024-02-11T04:26:37.757Z,10.34
2024-02-11T04:29:04.460Z,10.35
2024-02-11T04:31:33.087Z,10.33
2024-02-11T04:34:01.749Z,10.34
2024-02-11T04:36:31.079Z,10.34
2024-02-11T04:38:59.097Z,10.35
2024-02-11T04:41:25.711Z,10.35
2024-02-11T04:43:52.675Z,10.35
2024-02-11T04:46:20.675Z,10.35
2024-02-11T04:48:48.305Z,10.33
2024-02-11T04:51:16.443Z,10.32
2024-02-11T04:53:43.925Z,10.33
2024-02-11T04:56:12.614Z,10.33
2024-02-11T04:58:39.831Z,10.33
2024-02-11T05:01:06.504Z,10.33
2024-02-11T05:03:33.246Z,10.33
2024-02-11T05:06:00.930Z,10.32
2024-02-11T05:08:28.479Z,10.32
2024-02-11T05:10:56.690Z,10.30
2024-02-11T05:13:25.248Z,10.29
2024-02-11T05:15:52.481Z,10.29
2024-02-11T05:18:20.922Z,10.29
2024-02-11T05:20:48.687Z,10.30
2024-02-11T05:23:16.645Z,10.30
2024-02-11T05:25:47.083Z,10.29
2024-02-11T05:28:15.306Z,10.28
2024-02-11T05:30:48.563Z,10.30
2024-02-11T05:33:17.471Z,10.29
2024-02-11T05:35:44.951Z,10.28
2024-02-11T05:38:12.859Z,10.22
2024-02-11T05:40:46.387Z,10.22
2024-02-11T05:43:14.257Z,10.23
2024-02-11T05:45:41.544Z,10.25
2024-02-11T05:48:14.061Z,10.25
2024-02-11T05:50:41.558Z,10.25
2024-02-11T05:53:08.367Z,10.25
2024-02-11T05:55:35.465Z,10.24
2024-02-11T05:58:02.008Z,10.25
2024-02-11T06:00:32.906Z,10.24
2024-02-11T06:03:00.480Z,10.25
2024-02-11T06:05:27.463Z,10.24
2024-02-11T06:07:56.716Z,10.25
2024-02-11T06:10:27.719Z,10.26
2024-02-11T06:12:55.241Z,10.26
2024-02-11T06:15:22.075Z,10.26
2024-02-11T06:17:50.457Z,10.28
2024-02-11T06:20:19.414Z,10.27
2024-02-11T06:22:47.845Z,10.27
2024-02-11T06:25:15.610Z,10.24
2024-02-11T06:27:42.485Z,10.24
2024-02-11T06:30:13.495Z,10.25
2024-02-11T06:32:45.436Z,10.26
2024-02-11T06:35:12.507Z,10.26
2024-02-11T06:37:41.878Z,10.26
2024-02-11T06:40:15.175Z,10.26
2024-02-11T06:42:43.813Z,10.26
2024-02-11T06:45:13.849Z,10.21
2024-02-11T06:47:41.909Z,10.09
2024-02-11T06:50:11.129Z,9.98
2024-02-11T06:52:37.996Z,9.81
2024-02-11T06:55:06.416Z,9.68
2024-02-11T06:57:36.137Z,9.66
2024-02-11T07:00:02.855Z,9.62
2024-02-11T07:02:31.005Z,9.52
2024-02-11T07:04:59.006Z,9.53
2024-02-11T07:07:25.810Z,9.52
2024-02-11T07:09:52.556Z,9.43
2024-02-11T07:12:20.858Z,9.32
2024-02-11T07:14:47.923Z,9.38
2024-02-11T07:17:16.603Z,9.33
2024-02-11T07:19:44.276Z,9.34
2024-02-11T07:22:10.956Z,9.36
2024-02-11T07:24:38.779Z,9.31
2024-02-11T07:27:10.305Z,9.29
2024-02-11T07:29:36.980Z,9.30
2024-02-11T07:32:04.168Z,9.25
2024-02-11T07:34:31.060Z,9.24
2024-02-11T07:37:03.639Z,9.27
2024-02-11T07:39:30.819Z,9.25
2024-02-11T07:41:57.492Z,9.25
2024-02-11T07:44:24.800Z,9.25
2024-02-11T07:46:54.630Z,9.16
2024-02-11T07:49:22.187Z,9.06
2024-02-11T07:51:52.556Z,9.07
2024-02-11T07:54:21.366Z,8.98
2024-02-11T07:56:51.386Z,9.02
2024-02-11T07:59:18.223Z,9.08
2024-02-11T08:01:45.309Z,9.04
2024-02-11T08:04:12.523Z,9.03
2024-02-11T08:06:40.464Z,8.98
2024-02-11T08:09:11.180Z,8.99
2024-02-11T08:11:38.399Z,9.04
2024-02-11T08:14:05.698Z,9.03
2024-02-11T08:16:32.861Z,8.95
2024-02-11T08:18:59.823Z,8.96
2024-02-11T08:21:26.770Z,8.97
2024-02-11T08:23:53.435Z,8.99
2024-02-11T08:26:21.629Z,9.04
2024-02-11T08:28:48.412Z,9.04
2024-02-11T08:31:15.146Z,9.06
2024-02-11T08:33:46.235Z,8.95
2024-02-11T08:36:14.658Z,9.01
2024-02-11T08:38:41.727Z,9.11
2024-02-11T08:41:08.640Z,9.19
2024-02-11T08:43:35.364Z,9.24
2024-02-11T08:46:05.163Z,9.24
2024-02-11T08:48:35.411Z,9.20
2024-02-11T08:51:02.724Z,9.20
2024-02-11T08:53:31.637Z,9.15
2024-02-11T08:56:01.459Z,9.13
2024-02-11T08:58:29.479Z,9.15
2024-02-11T09:00:56.578Z,9.12
2024-02-11T09:03:23.859Z,9.13
2024-02-11T09:05:50.623Z,9.14
2024-02-11T09:08:18.149Z,9.15
2024-02-11T09:10:45.479Z,9.15
2024-02-11T09:13:12.480Z,9.11
2024-02-11T09:15:39.243Z,9.10
2024-02-11T09:18:07.406Z,9.12
2024-02-11T09:20:36.885Z,9.14
2024-02-11T09:23:06.861Z,9.15
2024-02-11T09:25:34.026Z,9.19
2024-02-11T09:28:01.234Z,9.11
2024-02-11T09:30:28.172Z,9.11
2024-02-11T09:32:55.366Z,9.12
2024-02-11T09:35:23.811Z,9.10
2024-02-11T09:37:51.175Z,9.13
2024-02-11T09:40:19.757Z,9.19
2024-02-11T09:42:47.268Z,9.18
2024-02-11T09:45:21.222Z,9.22
2024-02-11T09:47:52.081Z,9.20
2024-02-11T09:50:19.941Z,9.21
2024-02-11T09:52:47.828Z,9.21
2024-02-11T09:55:20.640Z,9.21
2024-02-11T09:57:47.772Z,9.17
2024-02-11T10:00:14.704Z,9.16
2024-02-11T10:02:42.144Z,9.15
2024-02-11T10:05:19.068Z,9.14
2024-02-11T10:07:46.539Z,9.21
2024-02-11T10:10:14.979Z,9.21
2024-02-11T10:12:46.442Z,9.27
2024-02-11T10:15:15.310Z,9.32
2024-02-11T10:17:42.743Z,9.40
2024-02-11T10:20:14.167Z,9.45
2024-02-11T10:22:42.142Z,9.47
2024-02-11T10:25:10.900Z,9.47
2024-02-11T10:27:38.159Z,9.50
2024-02-11T10:30:12.376Z,9.50
2024-02-11T10:32:40.432Z,9.37
2024-02-11T10:35:08.054Z,9.34
2024-02-11T10:37:46.321Z,9.38
2024-02-11T10:40:13.278Z,9.35
2024-02-11T10:42:41.775Z,9.32
2024-02-11T10:45:10.714Z,9.34
2024-02-11T10:47:38.057Z,9.37
2024-02-11T10:50:05.015Z,9.29
2024-02-11T10:52:43.962Z,9.28
2024-02-11T10:55:12.427Z,9.29
2024-02-11T10:57:56.397Z,9.38
2024-02-11T11:00:25.492Z,9.47
2024-02-11T11:02:59.605Z,9.55
2024-02-11T11:05:32.144Z,9.56
2024-02-11T11:08:02.028Z,9.53
2024-02-11T11:10:37.412Z,9.64
2024-02-11T11:13:04.294Z,9.63
2024-02-11T11:15:38.857Z,9.63
2024-02-11T11:18:05.899Z,9.57
2024-02-11T11:20:34.785Z,9.54
2024-02-11T11:23:02.035Z,9.50
2024-02-11T11:25:32.993Z,9.46
2024-02-11T11:28:16.822Z,9.42
2024-02-11T11:30:44.197Z,9.43
2024-02-11T11:33:13.708Z,9.51
2024-02-11T11:35:41.272Z,9.56
2024-02-11T11:38:08.472Z,9.63
2024-02-11T11:40:39.408Z,9.62
2024-02-11T11:43:22.345Z,9.62
2024-02-11T11:45:56.956Z,9.70
2024-02-11T11:48:24.575Z,9.69
2024-02-11T11:51:01.699Z,9.68
2024-02-11T11:53:30.464Z,9.68
2024-02-11T11:55:58.534Z,9.73
2024-02-11T11:58:26.722Z,9.80
2024-02-11T12:01:00.530Z,9.78
2024-02-11T12:03:28.551Z,9.81
2024-02-11T12:05:57.155Z,9.81
2024-02-11T12:08:27.675Z,9.83
2024-02-11T12:11:01.956Z,9.86
2024-02-11T12:13:32.452Z,9.82
2024-02-11T12:16:01.110Z,9.76
2024-02-11T12:18:27.765Z,9.82
2024-02-11T12:20:55.987Z,9.77
2024-02-11T12:23:24.772Z,9.76
2024-02-11T12:25:57.305Z,9.77
2024-02-11T12:28:28.228Z,9.82
2024-02-11T12:31:11.769Z,9.78
2024-02-11T12:33:46.781Z,9.79
2024-02-11T12:36:15.219Z,9.71
2024-02-11T12:38:46.532Z,9.72
2024-02-11T12:41:15.860Z,9.71
2024-02-11T12:43:43.362Z,9.75
2024-02-11T12:46:10.310Z,9.74
2024-02-11T12:48:44.855Z,9.80
2024-02-11T12:51:14.831Z,9.86
2024-02-11T12:53:43.126Z,9.94
2024-02-11T12:56:13.536Z,9.96
2024-02-11T12:58:45.452Z,9.98
2024-02-11T13:01:12.754Z,9.99
2024-02-11T13:03:40.364Z,10.02
2024-02-11T13:06:07.985Z,10.04
2024-02-11T13:08:35.395Z,10.05
2024-02-11T13:11:03.187Z,9.93
2024-02-11T13:13:31.300Z,9.87
2024-02-11T13:15:58.695Z,9.97
2024-02-11T13:18:25.394Z,10.38
2024-02-11T13:20:54.392Z,10.62
2024-02-11T13:23:21.290Z,10.73
2024-02-11T13:25:48.186Z,10.81
2024-02-11T13:28:18.478Z,10.90
2024-02-11T13:30:48.325Z,10.87
2024-02-11T13:33:16.466Z,10.96
2024-02-11T13:35:44.114Z,11.04
2024-02-11T13:38:11.270Z,11.09
2024-02-11T13:40:38.613Z,11.14
2024-02-11T13:43:05.622Z,11.10
2024-02-11T13:45:32.318Z,11.00
2024-02-11T13:48:00.983Z,10.85
2024-02-11T13:50:30.846Z,10.72
2024-02-11T13:52:58.448Z,10.56
2024-02-11T13:55:25.263Z,10.46
2024-02-11T13:57:52.400Z,10.32
2024-02-11T14:00:20.112Z,10.28
2024-02-11T14:02:46.948Z,10.26
2024-02-11T14:05:13.886Z,10.20
2024-02-11T14:07:40.987Z,10.19
2024-02-11T14:10:08.246Z,10.14
2024-02-11T14:12:39.477Z,10.12
2024-02-11T14:15:12.281Z,10.08
2024-02-11T14:17:49.668Z,10.04
2024-02-11T14:20:17.815Z,10.05
2024-02-11T14:22:44.815Z,9.97
2024-02-11T14:25:16.070Z,9.95
2024-02-11T14:27:48.818Z,9.99
2024-02-11T14:30:17.622Z,9.98
2024-02-11T14:32:45.453Z,10.00
2024-02-11T14:37:42.348Z,9.97
2024-02-11T14:40:10.630Z,9.99
2024-02-11T14:42:37.656Z,10.03
2024-02-11T14:45:04.834Z,10.02
2024-02-11T14:47:33.128Z,10.00
2024-02-11T14:50:01.297Z,10.03
2024-02-11T14:52:29.625Z,10.04
2024-02-11T14:54:56.249Z,10.04
2024-02-11T14:57:23.644Z,10.00
2024-02-11T14:59:50.262Z,10.03
2024-02-11T15:02:16.920Z,10.09
2024-02-11T15:04:43.821Z,10.11
2024-02-11T15:07:10.538Z,10.10
2024-02-11T15:09:39.460Z,10.11
2024-02-11T15:12:08.126Z,10.10
2024-02-11T15:14:34.775Z,10.09
2024-02-11T15:17:01.469Z,10.09
2024-02-11T15:19:28.492Z,10.08
2024-02-11T15:21:56.336Z,10.09
2024-02-11T15:24:23.018Z,10.08
2024-02-11T15:26:49.551Z,10.08
2024-02-11T15:29:16.628Z,10.08
2024-02-11T15:31:44.888Z,10.07
2024-02-11T15:34:11.741Z,10.03
2024-02-11T15:36:38.378Z,10.00
2024-02-11T15:39:07.937Z,9.98
2024-02-11T15:41:34.666Z,9.99
2024-02-11T15:44:03.192Z,9.95
2024-02-11T15:46:30.486Z,9.89
2024-02-11T15:48:57.408Z,9.90
2024-02-11T15:51:24.629Z,9.93
2024-02-11T15:53:52.310Z,9.92
2024-02-11T15:56:19.856Z,9.86
2024-02-11T15:58:47.609Z,9.87
2024-02-11T16:01:14.750Z,9.83
2024-02-11T16:03:45.993Z,9.82
2024-02-11T16:06:12.853Z,9.79
2024-02-11T16:08:39.541Z,9.80
2024-02-11T16:11:06.416Z,9.80
2024-02-11T16:13:32.999Z,9.80
2024-02-11T16:15:59.658Z,9.77
2024-02-11T16:18:26.409Z,9.77
2024-02-11T16:20:53.099Z,9.77
2024-02-11T16:23:19.654Z,9.79
2024-02-11T16:25:46.389Z,9.82
2024-02-11T16:28:12.973Z,9.84
2024-02-11T16:30:39.575Z,9.84
2024-02-11T16:33:06.532Z,9.80
2024-02-11T16:35:33.728Z,9.78
2024-02-11T16:38:00.410Z,9.79
2024-02-11T16:40:27.010Z,9.82
2024-02-11T16:42:53.700Z,9.84
2024-02-11T16:45:20.427Z,9.86
2024-02-11T16:47:47.152Z,9.86
2024-02-11T16:50:13.893Z,9.87
2024-02-11T16:52:41.122Z,9.85
2024-02-11T16:55:08.386Z,9.84
2024-02-11T16:57:35.602Z,9.83
2024-02-11T17:00:05.011Z,9.83
2024-02-11T17:02:32.032Z,9.83
2024-02-11T17:05:00.133Z,9.82
2024-02-11T17:07:27.902Z,9.83
2024-02-11T17:09:55.081Z,9.82
2024-02-11T17:12:21.785Z,9.82
2024-02-11T17:14:49.144Z,9.80
2024-02-11T17:17:16.021Z,9.79
2024-02-11T17:19:42.828Z,9.79
2024-02-11T17:22:11.519Z,9.77
2024-02-11T17:24:39.107Z,9.78
2024-02-11T17:27:06.959Z,9.80
2024-02-11T17:29:33.631Z,9.77
2024-02-11T17:32:00.281Z,9.75
2024-02-11T17:34:27.689Z,9.75
2024-02-11T17:36:54.443Z,9.75
2024-02-11T17:39:21.845Z,9.75
2024-02-11T17:41:48.561Z,9.72
2024-02-11T17:44:15.628Z,9.71
2024-02-11T17:46:42.624Z,9.64
2024-02-11T17:49:11.525Z,9.59
2024-02-11T17:51:41.703Z,9.61
2024-02-11T17:54:12.232Z,9.61
2024-02-11T17:56:39.868Z,9.60
2024-02-11T17:59:12.711Z,9.62
2024-02-11T18:01:41.429Z,9.60
2024-02-11T18:04:08.683Z,9.60
2024-02-11T18:06:37.147Z,9.59
2024-02-11T18:09:05.407Z,9.53
2024-02-11T18:11:36.958Z,9.54
2024-02-11T18:14:04.004Z,9.50
2024-02-11T18:16:30.939Z,9.48
2024-02-11T18:18:58.593Z,9.54
2024-02-11T18:21:27.093Z,9.66
2024-02-11T18:23:54.141Z,9.65
2024-02-11T18:26:21.511Z,9.62
2024-02-11T18:28:48.198Z,9.60
2024-02-11T18:31:17.026Z,9.55
2024-02-11T18:33:44.240Z,9.52
2024-02-11T18:36:10.916Z,9.52
2024-02-11T18:38:38.334Z,9.52
2024-02-11T18:41:05.369Z,9.52
2024-02-11T18:43:34.253Z,9.52
2024-02-11T18:46:03.040Z,9.43
2024-02-11T18:48:29.859Z,9.44
2024-02-11T18:50:56.632Z,9.41
2024-02-11T18:53:24.181Z,9.41
2024-02-11T18:55:51.117Z,9.40
2024-02-11T18:58:17.848Z,9.43
2024-02-11T19:00:44.633Z,9.40
2024-02-11T19:03:11.329Z,9.44
2024-02-11T19:05:38.771Z,9.45
2024-02-11T19:08:07.646Z,9.44
2024-02-11T19:10:36.620Z,9.42
2024-02-11T19:13:05.529Z,9.41
2024-02-11T19:15:32.190Z,9.41
2024-02-11T19:18:00.256Z,9.38
2024-02-11T19:20:27.105Z,9.39
2024-02-11T19:22:53.804Z,9.38
2024-02-11T19:25:20.930Z,9.34
2024-02-11T19:27:47.668Z,9.32
2024-02-11T19:30:14.776Z,9.30
2024-02-11T19:32:41.847Z,9.28
2024-02-11T19:35:09.883Z,9.29
2024-02-11T19:37:38.953Z,9.32
2024-02-11T19:40:11.871Z,9.30
2024-02-11T19:42:41.152Z,9.27
2024-02-11T19:45:09.124Z,9.31
2024-02-11T19:47:37.095Z,9.33
2024-02-11T19:50:06.972Z,9.36
2024-02-11T19:52:34.444Z,9.37
2024-02-11T19:55:02.316Z,9.36
2024-02-11T19:57:28.857Z,9.33
2024-02-11T19:59:55.538Z,9.29
2024-02-11T20:02:25.931Z,9.30
2024-02-11T20:04:55.056Z,9.28
2024-02-11T20:07:25.778Z,9.27
2024-02-11T20:09:53.698Z,9.26
2024-02-11T20:12:23.332Z,9.24
2024-02-11T20:14:51.016Z,9.26
2024-02-11T20:17:19.265Z,9.26
2024-02-11T20:19:46.152Z,9.23
2024-02-11T20:22:13.459Z,9.24
2024-02-11T20:24:41.238Z,9.25
2024-02-11T20:27:10.774Z,9.23
2024-02-11T20:29:41.199Z,9.21
2024-02-11T20:32:08.866Z,9.18
2024-02-11T20:34:38.950Z,9.20
2024-02-11T20:37:08.562Z,9.18
2024-02-11T20:39:36.398Z,9.18
2024-02-11T20:42:03.091Z,9.16
2024-02-11T20:44:29.649Z,9.14
2024-02-11T20:46:57.674Z,9.13
2024-02-11T20:49:24.385Z,9.11
2024-02-11T20:51:51.088Z,9.10
2024-02-11T20:54:17.713Z,9.08
2024-02-11T20:56:45.650Z,9.12
2024-02-11T20:59:14.515Z,9.10
2024-02-11T21:01:41.099Z,9.11
2024-02-11T21:04:08.969Z,9.13
2024-02-11T21:06:36.913Z,9.14
2024-02-11T21:09:03.830Z,9.12
2024-02-11T21:11:31.994Z,9.05
2024-02-11T21:13:58.741Z,9.00
2024-02-11T21:16:25.829Z,9.02
2024-02-11T21:18:52.726Z,9.04
2024-02-11T21:21:19.379Z,9.09
2024-02-11T21:23:46.368Z,9.11
2024-02-11T21:26:18.043Z,9.11
2024-02-11T21:28:49.061Z,9.09
2024-02-11T21:31:21.649Z,9.07
2024-02-11T21:33:51.316Z,9.05
2024-02-11T21:36:18.146Z,9.02
2024-02-11T21:38:44.808Z,9.03
2024-02-11T21:41:14.402Z,9.01
2024-02-11T21:43:41.952Z,9.04
2024-02-11T21:46:11.656Z,9.09
2024-02-11T21:48:42.531Z,9.11
2024-02-11T21:51:11.086Z,9.06
2024-02-11T21:53:38.332Z,9.02
2024-02-11T21:56:05.662Z,9.03
2024-02-11T21:58:32.270Z,9.02
2024-02-11T22:01:00.816Z,9.03
2024-02-11T22:03:29.065Z,9.01
2024-02-11T22:05:56.301Z,9.00
2024-02-11T22:08:23.133Z,9.01
2024-02-11T22:10:49.942Z,8.99
2024-02-11T22:13:16.528Z,8.99
2024-02-11T22:15:44.963Z,9.01
2024-02-11T22:18:12.341Z,8.98
2024-02-11T22:20:40.345Z,8.99
2024-02-11T22:23:08.191Z,9.00
2024-02-11T22:25:34.885Z,8.98
2024-02-11T22:28:01.446Z,8.98
2024-02-11T22:30:28.039Z,8.97
2024-02-11T22:32:55.066Z,8.96
2024-02-11T22:35:22.465Z,8.92
2024-02-11T22:37:51.004Z,8.93
2024-02-11T22:40:17.892Z,8.89
2024-02-11T22:42:44.738Z,8.90
2024-02-11T22:45:11.318Z,8.89
2024-02-11T22:47:38.134Z,8.89
2024-02-11T22:50:05.358Z,8.88
2024-02-11T22:52:32.863Z,8.87
2024-02-11T22:55:00.198Z,8.87
2024-02-11T22:57:27.621Z,8.85
2024-02-11T22:59:54.249Z,8.82
2024-02-11T23:02:21.880Z,8.83
2024-02-11T23:04:48.933Z,8.85
2024-02-11T23:07:15.542Z,8.85
2024-02-11T23:09:43.581Z,8.85
2024-02-11T23:12:10.764Z,8.85
2024-02-11T23:14:37.590Z,8.85
2024-02-11T23:17:05.415Z,8.83
2024-02-11T23:19:32.423Z,8.83
2024-02-11T23:22:00.029Z,8.81
2024-02-11T23:24:27.479Z,8.81
2024-02-11T23:26:55.420Z,8.82
2024-02-11T23:29:25.134Z,8.82
2024-02-11T23:31:52.705Z,8.80
2024-02-11T23:34:23.262Z,8.82
2024-02-11T23:36:50.251Z,8.82
2024-02-11T23:39:17.952Z,8.85
2024-02-11T23:41:44.724Z,8.84
2024-02-11T23:44:18.408Z,8.84
2024-02-11T23:46:48.398Z,8.86
2024-02-11T23:49:17.620Z,8.83
2024-02-11T23:51:45.190Z,8.84
2024-02-11T23:54:11.878Z,8.86
2024-02-11T23:56:41.965Z,8.86
2024-02-11T23:59:12.290Z,8.86
